Terminal Aerodrome Forecast
Issued by NWS

Home | Current Version | Previous Version | Text Only | Print | Product List | Glossary On
Versions: 1 2 3 4 5 6 7 8 9 10 11 12 13
007
FTUS43 KDVN 231130
TAFBRL
TAF
KBRL 231130Z 2312/2412 25007KT P6SM SCT035 BKN250
     FM231600 27008KT P6SM SCT040
     FM232100 31011G16KT P6SM SCT040
     FM240100 33007KT P6SM SKC
     FM240900 34004KT 6SM BR SKC=

USA.gov is the U.S. government's official web portal to all federal, state and local government web resources and services.